Time;durP1;ratioP1;P1;durP2;ratioP2;P2;SDS_P1;SDS_P2;PMS_P1;PMS_P2;Temp;Humidity;BMP_temperature;BMP_pressure;BME280_temperature;BME280_humidity;BME280_pressure;Samples;Min_cycle;Max_cycle;Signal;HPM_P1;HPM_P2
2022/01/26 00:00:05;;;;;;;18.97;11.43;;;;;;;-8.24;65.56;97810.66;6123969;23;20415;-85
2022/01/26 00:08:13;;;;;;;21.53;10.37;;;;;;;-8.53;65.85;97790.31;6153401;23;20515;-87
2022/01/26 00:10:40;;;;;;;20.47;11.20;;;;;;;-8.44;65.96;97805.75;6126436;23;20500;-91
2022/01/26 00:13:09;;;;;;;19.87;8.73;;;;;;;-8.32;65.61;97813.75;6152807;23;20413;-90
2022/01/26 00:15:38;;;;;;;20.57;9.63;;;;;;;-8.23;65.39;97810.72;6151243;23;20989;-84
2022/01/26 00:18:07;;;;;;;13.20;6.67;;;;;;;-8.35;64.65;97782.66;6123214;23;20403;-83
2022/01/26 00:20:46;;;;;;;22.57;11.30;;;;;;;-8.16;64.83;97809.31;6150419;23;20459;-90
2022/01/26 00:26:00;;;;;;;20.67;10.00;;;;;;;-8.06;64.48;97797.16;6127363;23;20493;-82
2022/01/26 00:28:57;;;;;;;24.73;11.43;;;;;;;-8.16;64.26;97756.56;6102396;23;20766;-82
2022/01/26 00:39:41;;;;;;;16.73;8.90;;;;;;;-7.80;63.61;97793.94;6151503;23;20740;-82
2022/01/26 00:42:09;;;;;;;19.93;9.97;;;;;;;-7.74;63.55;97795.81;6123087;23;20762;-82
2022/01/26 00:44:44;;;;;;;17.40;8.33;;;;;;;-7.75;63.41;97781.56;6123921;23;20486;-82
2022/01/26 00:47:16;;;;;;;15.47;7.40;;;;;;;-7.50;63.31;97791.69;6149174;23;20398;-83
2022/01/26 00:49:43;;;;;;;20.80;8.87;;;;;;;-7.66;62.93;97789.41;6098596;23;20458;-82
2022/01/26 00:52:17;;;;;;;11.70;7.70;;;;;;;-7.73;63.35;97774.91;6149506;23;20399;-82
2022/01/26 00:54:46;;;;;;;16.80;8.90;;;;;;;-7.57;63.39;97788.09;6149216;23;20898;-81
2022/01/26 00:57:14;;;;;;;15.70;8.63;;;;;;;-7.78;63.22;97747.09;6149025;23;20402;-82
2022/01/26 00:59:41;;;;;;;16.83;7.83;;;;;;;-7.59;63.36;97768.72;6122896;23;20403;-82
2022/01/26 01:02:12;;;;;;;14.60;8.40;;;;;;;-7.54;63.37;97782.31;6099494;23;20458;-82
2022/01/26 01:04:40;;;;;;;20.73;8.90;;;;;;;-7.56;63.55;97779.75;6122957;23;20414;-84
2022/01/26 01:07:12;;;;;;;13.03;8.00;;;;;;;-7.77;62.98;97710.28;6123108;23;20508;-82
2022/01/26 01:09:40;;;;;;;13.07;7.33;;;;;;;-7.43;62.24;97758.41;6123003;23;20436;-82
2022/01/26 01:12:09;;;;;;;16.20;8.83;;;;;;;-7.46;62.27;97739.03;6122974;23;20434;-82
2022/01/26 01:14:38;;;;;;;19.03;7.57;;;;;;;-7.39;62.20;97757.69;6123088;23;20910;-82
2022/01/26 01:17:10;;;;;;;18.10;9.93;;;;;;;-7.44;61.99;97763.38;6100425;23;20406;-87
2022/01/26 01:19:52;;;;;;;12.90;7.50;;;;;;;-7.45;62.02;97757.50;6100502;23;20429;-84
2022/01/26 01:33:04;;;;;;;20.83;9.63;;;;;;;-6.90;60.49;97760.19;6151582;23;20478;-86
2022/01/26 01:35:40;;;;;;;22.77;10.03;;;;;;;-6.81;60.85;97748.78;6102055;23;20413;-85
2022/01/26 01:38:10;;;;;;;16.60;9.67;;;;;;;-6.90;60.54;97755.16;6151907;23;20398;-88
2022/01/26 01:40:42;;;;;;;18.47;10.10;;;;;;;-6.79;60.68;97754.72;6102597;23;20395;-87
2022/01/26 01:43:11;;;;;;;24.17;10.67;;;;;;;-6.82;59.98;97731.97;6126002;23;20403;-86
2022/01/26 01:45:46;;;;;;;15.50;8.73;;;;;;;-6.88;60.76;97726.72;6125371;23;20435;-90
2022/01/26 01:48:18;;;;;;;18.77;9.87;;;;;;;-6.53;60.67;97759.75;6101188;23;20786;-87
2022/01/26 01:50:50;;;;;;;21.30;10.00;;;;;;;-6.61;59.90;97733.47;6101726;23;20450;-90
2022/01/26 01:53:19;;;;;;;23.77;10.53;;;;;;;-6.72;60.08;97726.41;6124823;23;20427;-88
2022/01/26 01:55:50;;;;;;;23.10;9.97;;;;;;;-6.48;59.48;97751.53;6151345;23;20413;-90
2022/01/26 01:58:23;;;;;;;22.77;11.63;;;;;;;-6.79;59.58;97733.72;6126835;23;20414;-82
2022/01/26 02:00:50;;;;;;;20.57;9.17;;;;;;;-6.74;60.30;97730.53;6103098;23;20438;-82
2022/01/26 02:03:19;;;;;;;23.20;11.33;;;;;;;-6.70;60.59;97727.31;6153584;23;20398;-89
2022/01/26 02:05:46;;;;;;;18.33;10.33;;;;;;;-6.43;59.84;97754.19;6127324;23;20922;-87
2022/01/26 02:08:16;;;;;;;17.13;9.10;;;;;;;-6.41;60.74;97747.53;6127468;23;20415;-90
2022/01/26 02:10:45;;;;;;;17.20;9.20;;;;;;;-6.46;60.82;97731.41;6126979;23;20985;-88
2022/01/26 02:13:21;;;;;;;23.37;12.17;;;;;;;-6.28;60.46;97755.50;6103119;23;20407;-89
2022/01/26 03:02:39;;;;;;;19.40;12.00;;;;;;;-6.31;59.30;97734.41;6131917;23;20449;-91
2022/01/26 03:05:11;;;;;;;18.13;9.47;;;;;;;-6.44;59.47;97730.66;6105081;23;20410;-84
2022/01/26 03:07:47;;;;;;;20.33;9.00;;;;;;;-6.49;59.77;97728.81;6125783;23;20395;-85
2022/01/26 03:10:45;;;;;;;20.87;9.83;;;;;;;-6.56;60.06;97709.28;6099408;23;20433;-87
2022/01/26 03:13:13;;;;;;;17.97;8.83;;;;;;;-6.49;60.04;97719.56;6148619;23;20413;-85
2022/01/26 03:15:48;;;;;;;20.53;10.77;;;;;;;-6.59;60.34;97696.59;6124711;23;20814;-86
2022/01/26 03:20:47;;;;;;;23.67;10.80;;;;;;;-6.49;59.93;97711.19;6100032;23;20429;-85
2022/01/26 03:29:26;;;;;;;22.33;11.43;;;;;;;-6.28;60.29;97694.16;6031402;23;20413;-85
2022/01/26 03:32:41;;;;;;;21.40;12.30;;;;;;;-6.17;59.68;97700.41;6007425;23;20540;-83
2022/01/26 03:34:53;;;;;;;24.37;13.63;;;;;;;-6.20;60.42;97682.69;6100761;23;20407;-84
2022/01/26 03:37:37;;;;;;;22.10;11.83;;;;;;;-6.12;59.94;97697.19;6150516;23;20777;-82
2022/01/26 03:40:13;;;;;;;24.40;11.43;;;;;;;-6.21;60.13;97675.91;6124074;23;20485;-83
2022/01/26 03:42:44;;;;;;;21.60;9.67;;;;;;;-6.25;60.07;97704.34;6125027;23;20395;-83
2022/01/26 03:45:11;;;;;;;20.07;11.20;;;;;;;-6.50;60.26;97661.59;6124296;23;20407;-82
2022/01/26 03:47:38;;;;;;;23.93;10.87;;;;;;;-6.31;60.74;97678.97;6123885;23;20441;-86
2022/01/26 03:50:10;;;;;;;25.20;10.40;;;;;;;-6.37;60.50;97683.84;6099480;23;20417;-86
2022/01/26 03:52:37;;;;;;;23.70;11.53;;;;;;;-6.47;60.99;97665.06;6124566;23;20422;-83
2022/01/26 03:55:05;;;;;;;19.13;10.07;;;;;;;-6.39;60.63;97687.97;6124092;23;20458;-85
2022/01/26 03:57:33;;;;;;;20.27;9.70;;;;;;;-6.47;60.97;97669.28;6099695;23;20757;-82
2022/01/26 04:00:03;;;;;;;23.53;11.40;;;;;;;-6.29;60.49;97695.00;6123765;23;20428;-82
2022/01/26 04:02:38;;;;;;;23.30;10.17;;;;;;;-6.75;61.32;97668.44;6150442;23;20430;-85
2022/01/26 04:05:11;;;;;;;17.87;9.83;;;;;;;-6.58;62.36;97699.16;6150118;23;20394;-83
2022/01/26 04:07:40;;;;;;;17.93;9.20;;;;;;;-6.66;62.01;97675.41;6123507;23;20403;-82
2022/01/26 04:10:20;;;;;;;21.93;10.63;;;;;;;-6.56;61.68;97684.09;6150239;23;20430;-82
2022/01/26 04:12:48;;;;;;;21.80;10.20;;;;;;;-6.80;62.20;97667.41;6123266;23;20441;-83
2022/01/26 04:15:29;;;;;;;22.30;11.23;;;;;;;-6.88;62.51;97681.44;6098687;23;20419;-84
2022/01/26 04:18:01;;;;;;;23.60;11.20;;;;;;;-6.87;63.35;97652.94;6126780;23;20445;-83
2022/01/26 04:20:35;;;;;;;21.83;10.47;;;;;;;-6.64;63.00;97668.75;6149990;23;20401;-83
2022/01/26 04:23:14;;;;;;;25.97;10.70;;;;;;;-6.48;61.96;97691.06;6123266;23;20895;-82
2022/01/26 04:25:44;;;;;;;21.17;10.43;;;;;;;-6.56;61.88;97666.47;6149545;23;21045;-82
2022/01/26 04:28:18;;;;;;;23.53;11.03;;;;;;;-6.49;62.00;97664.16;6098659;23;20403;-83
2022/01/26 04:30:45;;;;;;;21.37;11.40;;;;;;;-6.40;61.56;97686.25;6098794;23;20458;-82
2022/01/26 04:33:13;;;;;;;25.83;10.97;;;;;;;-6.60;62.17;97672.22;6122700;23;21010;-82
2022/01/26 04:35:45;;;;;;;29.37;13.50;;;;;;;-6.66;62.50;97678.75;6148875;23;20765;-82
2022/01/26 04:38:29;;;;;;;28.23;13.57;;;;;;;-6.66;62.71;97683.78;6149121;23;20394;-82
2022/01/26 04:43:36;;;;;;;34.10;14.90;;;;;;;-6.87;63.96;97692.34;6150227;23;20477;-82
2022/01/26 04:46:05;;;;;;;28.60;15.90;;;;;;;-7.10;64.12;97671.50;6122856;23;20402;-83
2022/01/26 04:48:34;;;;;;;32.27;15.10;;;;;;;-7.04;64.76;97699.38;6100324;23;20410;-82
2022/01/26 04:51:03;;;;;;;37.20;15.17;;;;;;;-6.87;65.13;97700.78;6148831;23;20453;-82
2022/01/26 04:53:40;;;;;;;30.87;15.37;;;;;;;-6.78;65.07;97682.59;6101263;23;20418;-87
2022/01/26 04:56:08;;;;;;;37.53;18.60;;;;;;;-6.86;64.71;97666.41;6149099;23;21105;-83
2022/01/26 04:58:35;;;;;;;42.37;19.63;;;;;;;-6.94;65.03;97688.78;6099232;23;20419;-83
2022/01/26 05:01:07;;;;;;;37.00;16.20;;;;;;;-6.98;65.45;97681.94;6124152;23;20493;-82
2022/01/26 05:03:37;;;;;;;47.23;19.93;;;;;;;-6.93;65.38;97672.91;6124299;23;20750;-83
2022/01/26 05:06:06;;;;;;;37.47;17.97;;;;;;;-6.99;65.68;97675.22;6123404;23;20420;-83
2022/01/26 05:08:37;;;;;;;39.40;19.20;;;;;;;-6.86;66.11;97711.72;6124176;23;20403;-83
2022/01/26 05:11:07;;;;;;;40.63;19.67;;;;;;;-6.82;66.39;97694.19;6098923;23;20837;-82
2022/01/26 05:13:59;;;;;;;42.77;20.40;;;;;;;-6.64;65.82;97696.47;6150925;23;20499;-84
2022/01/26 05:16:28;;;;;;;30.23;15.90;;;;;;;-6.93;65.82;97677.94;6126514;23;21005;-85
2022/01/26 05:19:04;;;;;;;21.70;13.00;;;;;;;-6.95;66.73;97687.09;6135611;23;20405;-88
2022/01/26 05:21:36;;;;;;;33.27;13.73;;;;;;;-6.93;66.88;97680.44;6165362;23;20406;-89
2022/01/26 05:24:10;;;;;;;30.07;13.97;;;;;;;-6.90;66.89;97662.03;6136762;23;20402;-89
2022/01/26 05:26:39;;;;;;;36.13;14.30;;;;;;;-6.67;66.25;97684.63;6129265;23;20421;-89
2022/01/26 05:29:13;;;;;;;28.90;14.77;;;;;;;-6.61;65.53;97685.63;6134392;23;20426;-82
2022/01/26 05:31:41;;;;;;;31.73;17.07;;;;;;;-7.05;65.74;97647.34;6119597;23;20555;-85
2022/01/26 05:34:09;;;;;;;27.00;13.97;;;;;;;-6.99;66.18;97665.16;6126666;23;20410;-82
2022/01/26 05:36:36;;;;;;;23.47;12.10;;;;;;;-6.91;66.36;97676.31;6147659;23;20399;-86
2022/01/26 05:39:06;;;;;;;23.33;11.87;;;;;;;-6.84;66.06;97680.72;6175468;23;20406;-94
2022/01/26 05:41:37;;;;;;;20.90;11.43;;;;;;;-6.91;65.28;97658.69;6176627;23;20395;-88
2022/01/26 05:44:07;;;;;;;31.40;14.10;;;;;;;-6.81;65.69;97669.91;6118174;23;20414;-81
2022/01/26 05:46:47;;;;;;;24.93;13.40;;;;;;;-6.71;64.89;97677.78;6157571;23;20398;-82
2022/01/26 05:49:20;;;;;;;19.23;11.90;;;;;;;-6.78;65.65;97673.34;6108508;23;20786;-82
2022/01/26 05:51:50;;;;;;;22.70;13.07;;;;;;;-6.77;65.49;97680.13;6126635;23;20458;-81
2022/01/26 05:54:19;;;;;;;24.87;11.67;;;;;;;-6.80;65.71;97664.91;6105766;23;20415;-81
2022/01/26 05:56:50;;;;;;;22.73;13.70;;;;;;;-6.80;64.72;97651.47;6106832;23;20425;-81
2022/01/26 05:59:21;;;;;;;30.90;12.90;;;;;;;-6.59;65.03;97669.75;6128112;23;20438;-85
2022/01/26 06:01:50;;;;;;;21.90;12.60;;;;;;;-6.48;64.77;97675.97;6129733;23;20525;-81
2022/01/26 06:04:19;;;;;;;25.17;12.83;;;;;;;-6.63;65.09;97653.69;6131468;23;20482;-78
2022/01/26 06:06:46;;;;;;;32.03;16.17;;;;;;;-6.53;65.31;97666.56;6156081;23;20399;-78
2022/01/26 06:09:15;;;;;;;30.30;14.73;;;;;;;-6.51;65.44;97683.41;6156397;23;20415;-84
2022/01/26 06:11:42;;;;;;;42.43;17.90;;;;;;;-6.53;66.41;97669.91;6156994;23;20446;-81
2022/01/26 06:14:09;;;;;;;34.00;14.23;;;;;;;-6.37;65.71;97698.97;6131348;23;20842;-81
2022/01/26 06:16:37;;;;;;;35.07;15.57;;;;;;;-6.42;66.46;97681.19;6132150;23;20414;-80
2022/01/26 06:19:11;;;;;;;33.70;16.60;;;;;;;-6.39;66.52;97695.53;6157568;23;20394;-81
2022/01/26 06:21:39;;;;;;;32.97;15.43;;;;;;;-6.21;64.75;97679.31;6152487;23;20819;-80
2022/01/26 06:24:28;;;;;;;29.63;15.77;;;;;;;-6.06;64.25;97704.09;6152664;23;20387;-82
2022/01/26 06:26:59;;;;;;;34.70;15.63;;;;;;;-5.91;63.75;97691.91;6151775;23;20402;-81
2022/01/26 06:29:27;;;;;;;28.47;15.50;;;;;;;-5.76;62.94;97699.88;6150562;23;20395;-80
2022/01/26 06:31:54;;;;;;;30.33;13.50;;;;;;;-5.90;61.28;97679.38;6126153;23;20949;-82
2022/01/26 06:34:26;;;;;;;28.70;14.67;;;;;;;-5.76;61.23;97702.38;6162233;23;20509;-84
2022/01/26 06:36:53;;;;;;;23.90;11.77;;;;;;;-5.74;60.77;97679.72;6160493;23;20425;-82
2022/01/26 06:39:20;;;;;;;21.67;10.63;;;;;;;-5.63;60.45;97698.53;6111437;23;20411;-81
2022/01/26 06:41:56;;;;;;;19.70;10.77;;;;;;;-5.67;59.63;97679.09;6110005;23;20954;-84
2022/01/26 06:44:35;;;;;;;13.10;7.50;;;;;;;-5.46;56.71;97693.13;6133393;23;20412;-81
2022/01/26 06:47:33;;;;;;;17.43;9.27;;;;;;;-5.20;56.49;97684.56;6132135;23;20427;-82
2022/01/26 06:50:02;;;;;;;24.10;10.57;;;;;;;-5.16;58.44;97675.41;6134184;23;20444;-84
2022/01/26 06:52:29;;;;;;;25.00;12.43;;;;;;;-5.03;58.07;97685.81;6158506;23;20450;-81
2022/01/26 06:54:57;;;;;;;18.50;10.70;;;;;;;-4.82;55.21;97692.25;6133082;23;21286;-81
2022/01/26 06:57:25;;;;;;;21.87;10.97;;;;;;;-4.74;54.65;97684.00;6159616;23;20398;-85
2022/01/26 06:59:53;;;;;;;29.37;14.30;;;;;;;-4.72;57.68;97686.59;6160869;23;20399;-81
2022/01/26 07:02:22;;;;;;;34.07;14.80;;;;;;;-4.66;56.81;97686.72;6154835;23;20196;-81
2022/01/26 07:04:49;;;;;;;36.43;15.57;;;;;;;-4.58;57.32;97680.19;6152501;23;20167;-88
2022/01/26 07:07:18;;;;;;;33.97;16.47;;;;;;;-4.59;59.06;97673.41;6128527;23;20167;-84
2022/01/26 07:09:46;;;;;;;31.93;16.27;;;;;;;-4.52;60.40;97681.19;6155063;23;20199;-87
2022/01/26 07:12:16;;;;;;;29.90;15.83;;;;;;;-4.52;60.43;97677.78;6102979;23;20202;-83
2022/01/26 07:23:26;;;;;;;38.93;18.57;;;;;;;-3.88;59.62;97675.81;6022374;23;20570;-80
2022/01/26 07:25:55;;;;;;;35.47;19.20;;;;;;;-3.64;60.31;97686.41;6137384;23;20270;-81
2022/01/26 07:28:23;;;;;;;27.00;15.40;;;;;;;-3.68;61.80;97645.84;6130241;23;20222;-80
2022/01/26 07:30:50;;;;;;;29.00;13.53;;;;;;;-3.14;61.20;97678.91;6156457;23;20168;-81
2022/01/26 07:33:23;;;;;;;20.20;10.43;;;;;;;-2.75;60.04;97684.63;6136107;23;20264;-81
2022/01/26 07:35:52;;;;;;;34.13;18.10;;;;;;;-2.74;60.58;97673.69;6132501;23;20185;-79
2022/01/26 07:38:22;;;;;;;31.37;17.00;;;;;;;-2.58;60.61;97676.47;6155764;23;20580;-80
2022/01/26 07:40:50;;;;;;;41.13;22.30;;;;;;;-2.68;60.69;97671.25;6155532;23;20195;-80
2022/01/26 07:43:21;;;;;;;30.47;15.47;;;;;;;-2.36;60.78;97685.25;6157118;23;20199;-80
2022/01/26 07:45:51;;;;;;;30.20;14.43;;;;;;;-2.12;60.00;97692.38;6156945;23;20182;-84
2022/01/26 07:48:23;;;;;;;20.27;9.87;;;;;;;-1.89;59.99;97670.66;6085252;23;20175;-80
2022/01/26 07:50:52;;;;;;;23.07;12.20;;;;;;;-1.80;59.68;97666.56;6108492;23;20182;-85
2022/01/26 07:53:20;;;;;;;17.93;9.50;;;;;;;-1.65;60.14;97666.72;6158716;23;20634;-81
2022/01/26 07:55:51;;;;;;;6.17;4.00;;;;;;;-1.28;58.84;97670.56;6158983;23;20750;-82
2022/01/26 07:58:20;;;;;;;8.20;4.47;;;;;;;-1.07;57.80;97675.00;6134123;23;20167;-80
2022/01/26 08:00:49;;;;;;;6.63;4.07;;;;;;;-0.90;57.40;97678.53;6108360;23;20554;-80
2022/01/26 08:03:21;;;;;;;9.57;5.03;;;;;;;-0.82;58.33;97676.06;6157377;23;20174;-80
2022/01/26 08:05:50;;;;;;;6.90;4.00;;;;;;;-0.84;58.73;97665.88;6140011;23;20171;-81
2022/01/26 08:08:19;;;;;;;6.50;4.17;;;;;;;-0.79;58.91;97655.75;6132854;23;20173;-82
2022/01/26 08:10:50;;;;;;;6.87;3.63;;;;;;;-0.62;57.21;97672.84;6128899;23;20177;-81
2022/01/26 08:13:23;;;;;;;9.10;4.97;;;;;;;-0.59;57.96;97666.91;6106458;23;20203;-81
2022/01/26 08:15:56;;;;;;;5.63;3.93;;;;;;;-0.57;58.65;97670.31;6127870;23;20175;-78
2022/01/26 08:18:25;;;;;;;5.30;2.93;;;;;;;-0.52;57.78;97678.84;6155744;23;20184;-79
2022/01/26 08:21:03;;;;;;;4.80;3.07;;;;;;;-0.54;58.11;97666.13;6149495;23;20175;-79
2022/01/26 08:23:35;;;;;;;11.90;6.07;;;;;;;-0.52;57.75;97658.50;6150487;23;20273;-79
2022/01/26 08:26:07;;;;;;;10.53;5.77;;;;;;;-0.48;58.16;97666.16;6161529;23;20167;-81
2022/01/26 08:28:42;;;;;;;9.00;5.00;;;;;;;-0.44;58.32;97662.81;6135172;23;20174;-79
2022/01/26 08:31:13;;;;;;;8.23;5.20;;;;;;;-0.46;59.04;97664.50;6160726;23;20730;-80
2022/01/26 08:33:42;;;;;;;10.27;5.37;;;;;;;-0.45;59.97;97666.16;6108949;23;20194;-80
2022/01/26 08:36:12;;;;;;;6.73;4.07;;;;;;;-0.37;59.32;97669.63;6154513;23;20167;-79
2022/01/26 08:38:41;;;;;;;6.10;3.83;;;;;;;-0.33;59.01;97671.34;6127739;23;20167;-81
2022/01/26 08:41:11;;;;;;;6.77;4.23;;;;;;;-0.38;59.48;97670.47;6128396;23;20174;-79
2022/01/26 08:43:39;;;;;;;6.80;4.60;;;;;;;-0.32;59.13;97660.34;6128745;23;20163;-80
2022/01/26 08:46:10;;;;;;;5.93;3.90;;;;;;;-0.26;59.41;97660.38;6128979;23;20189;-83
2022/01/26 08:48:42;;;;;;;5.77;3.90;;;;;;;-0.40;58.85;97645.84;6141094;23;20183;-79
2022/01/26 08:51:11;;;;;;;6.70;4.17;;;;;;;-0.33;59.47;97661.16;6139121;23;20171;-80
2022/01/26 08:53:41;;;;;;;5.90;4.17;;;;;;;-0.27;60.11;97657.84;6161639;23;20550;-80
2022/01/26 08:56:10;;;;;;;7.93;4.40;;;;;;;-0.40;59.49;97631.47;6136954;23;20229;-79
2022/01/26 08:58:41;;;;;;;8.60;4.50;;;;;;;-0.21;59.94;97668.03;6107906;23;20168;-80
2022/01/26 09:01:11;;;;;;;11.37;5.57;;;;;;;-0.28;59.86;97663.75;6154973;23;20191;-79
2022/01/26 09:03:40;;;;;;;13.20;7.10;;;;;;;-0.27;60.52;97661.19;6155947;23;20171;-80
2022/01/26 09:06:08;;;;;;;17.37;8.57;;;;;;;-0.43;60.64;97664.50;6132305;23;20174;-81
2022/01/26 09:08:45;;;;;;;20.13;11.27;;;;;;;-0.64;60.16;97668.59;6154031;23;20179;-80
2022/01/26 09:11:20;;;;;;;22.30;11.23;;;;;;;-1.00;60.19;97671.66;6128188;23;20246;-80
2022/01/26 09:16:56;;;;;;;19.23;10.53;;;;;;;-1.63;58.95;97665.91;6155402;23;20174;-80
2022/01/26 09:19:32;;;;;;;15.43;9.10;;;;;;;-2.00;58.21;97655.28;6127875;23;20241;-80
2022/01/26 09:22:08;;;;;;;18.77;10.27;;;;;;;-2.08;58.65;97656.06;6107606;23;20173;-80
2022/01/26 09:24:39;;;;;;;19.87;10.43;;;;;;;-2.17;57.88;97666.06;6125753;23;20241;-82
2022/01/26 09:27:09;;;;;;;19.10;10.47;;;;;;;-2.15;57.94;97652.59;6152944;23;20175;-82
2022/01/26 09:29:37;;;;;;;17.30;9.00;;;;;;;-2.11;57.44;97669.53;6154442;23;20207;-81
2022/01/26 09:32:06;;;;;;;18.50;9.47;;;;;;;-2.34;57.47;97653.16;6128869;23;20214;-87
2022/01/26 09:34:38;;;;;;;17.73;8.73;;;;;;;-2.24;56.66;97666.81;6125819;23;20172;-81
2022/01/26 09:37:10;;;;;;;15.23;9.67;;;;;;;-2.28;56.13;97653.25;6153718;23;20165;-83
2022/01/26 09:39:42;;;;;;;17.23;10.73;;;;;;;-2.54;56.14;97598.78;6125070;23;20170;-80
2022/01/26 09:42:13;;;;;;;18.60;9.87;;;;;;;-2.32;55.42;97643.03;6152604;23;20673;-79
2022/01/26 09:44:42;;;;;;;19.63;11.90;;;;;;;-2.23;55.73;97646.56;6126607;23;20167;-81
2022/01/26 09:47:14;;;;;;;21.30;11.73;;;;;;;-2.22;55.53;97635.56;6126269;23;20166;-80
2022/01/26 09:49:44;;;;;;;20.97;10.60;;;;;;;-2.02;54.71;97656.97;6123821;23;20174;-87
2022/01/26 09:52:20;;;;;;;22.13;13.00;;;;;;;-1.94;55.30;97657.91;6098213;23;20207;-80
2022/01/26 09:54:49;;;;;;;24.83;12.70;;;;;;;-2.01;55.05;97620.63;6099858;23;20186;-80
2022/01/26 09:57:25;;;;;;;24.57;12.63;;;;;;;-1.78;55.13;97647.13;6102156;23;20236;-82
2022/01/26 09:59:53;;;;;;;31.97;12.87;;;;;;;-1.69;55.53;97649.75;6097533;23;20247;-81
2022/01/26 10:02:30;;;;;;;24.47;12.07;;;;;;;-1.60;53.79;97638.88;6074299;23;20288;-80
2022/01/26 10:05:11;;;;;;;23.57;13.57;;;;;;;-1.75;54.32;97604.00;6106878;23;20197;-82
2022/01/26 10:08:23;;;;;;;25.63;13.20;;;;;;;-1.57;54.20;97622.81;6109677;23;20206;-83
2022/01/26 10:19:29;;;;;;;18.17;11.00;;;;;;;-1.84;55.63;97543.00;6164915;23;20637;-91
2022/01/26 10:21:57;;;;;;;24.53;10.90;;;;;;;-1.44;55.78;97601.81;6140193;23;20212;-87
2022/01/26 10:24:28;;;;;;;20.37;12.23;;;;;;;-1.28;55.67;97606.19;6138429;23;20634;-83
2022/01/26 10:27:00;;;;;;;24.70;11.83;;;;;;;-1.15;56.10;97615.59;6136052;23;20198;-84
2022/01/26 10:29:34;;;;;;;19.97;11.33;;;;;;;-1.03;56.81;97608.13;6161457;23;20175;-90
2022/01/26 10:32:14;;;;;;;25.70;14.47;;;;;;;-0.86;56.41;97604.00;6140372;23;20177;-82
2022/01/26 10:34:43;;;;;;;24.53;13.97;;;;;;;-1.05;55.22;97576.75;6138054;23;20185;-78
2022/01/26 10:37:11;;;;;;;20.23;12.33;;;;;;;-0.76;54.90;97599.84;6116267;23;20175;-83
2022/01/26 10:39:49;;;;;;;22.20;11.63;;;;;;;-0.68;54.04;97604.13;6121676;23;20836;-83
2022/01/26 10:42:21;;;;;;;21.07;12.07;;;;;;;-0.65;54.47;97616.88;6146235;23;20187;-83
2022/01/26 10:44:51;;;;;;;19.57;10.90;;;;;;;-0.80;53.89;97580.34;6177845;23;20202;-84
2022/01/26 10:47:32;;;;;;;20.37;10.47;;;;;;;-0.52;53.55;97611.03;6149099;23;20170;-92
2022/01/26 10:52:55;;;;;;;23.27;10.97;;;;;;;-0.54;54.74;97609.31;6174302;23;20274;-89
2022/01/26 10:55:24;;;;;;;19.53;11.83;;;;;;;-0.56;54.08;97596.59;6150188;23;20167;-82
2022/01/26 10:57:51;;;;;;;28.97;12.93;;;;;;;-0.35;54.77;97611.97;6141515;23;20195;-79
2022/01/26 11:00:24;;;;;;;18.73;12.53;;;;;;;-0.53;54.03;97585.56;6129981;23;20623;-79
2022/01/26 11:02:57;;;;;;;28.20;14.03;;;;;;;-0.29;55.05;97606.91;6134033;23;20199;-80
2022/01/26 11:05:34;;;;;;;28.90;14.87;;;;;;;-0.11;54.13;97612.13;6156990;23;20212;-82
2022/01/26 11:08:43;;;;;;;64.43;33.13;;;;;;;-0.05;54.08;97614.69;6128961;23;20217;-80
2022/01/26 11:12:08;;;;;;;40.80;23.67;;;;;;;0.07;55.35;97600.28;6129114;23;20226;-81
2022/01/26 11:15:34;;;;;;;40.30;20.23;;;;;;;0.16;55.00;97600.34;6108324;23;20175;-82
2022/01/26 11:19:13;;;;;;;28.57;16.67;;;;;;;0.21;54.92;97591.00;6064992;23;20193;-83
2022/01/26 11:22:35;;;;;;;29.57;15.30;;;;;;;0.34;56.41;97585.13;6061172;23;20732;-84
2022/01/26 11:25:59;;;;;;;19.50;10.23;;;;;;;0.44;57.31;97597.03;6042870;23;20174;-82
2022/01/26 11:29:22;;;;;;;20.97;11.00;;;;;;;0.46;56.83;97585.13;6015159;23;20180;-80
2022/01/26 11:32:38;;;;;;;11.60;7.40;;;;;;;0.57;56.74;97584.34;6064457;23;20204;-83
2022/01/26 11:36:06;;;;;;;13.97;6.90;;;;;;;0.64;58.19;97570.75;6043632;23;20169;-82
2022/01/26 11:46:33;;;;;;;11.27;5.17;;;;;;;0.97;59.26;97564.81;6036320;23;20173;-82
2022/01/26 11:49:55;;;;;;;6.97;5.07;;;;;;;1.03;59.92;97569.91;6120403;23;20171;-89
2022/01/26 11:53:03;;;;;;;6.80;5.00;;;;;;;1.07;59.02;97560.56;6113780;23;20199;-85
2022/01/26 11:56:27;;;;;;;9.67;5.43;;;;;;;1.12;59.93;97559.72;6162545;23;20233;-88
2022/01/26 11:59:57;;;;;;;11.47;6.47;;;;;;;1.14;58.51;97558.00;6094479;23;20178;-87
2022/01/26 12:03:24;;;;;;;10.50;6.47;;;;;;;1.24;58.57;97558.84;6137485;23;20198;-83
2022/01/26 12:06:51;;;;;;;9.17;5.60;;;;;;;1.18;57.67;97544.41;6139660;23;20175;-82
2022/01/26 12:10:17;;;;;;;12.33;7.00;;;;;;;1.24;57.75;97549.50;6138171;23;20187;-82
2022/01/26 12:13:40;;;;;;;11.17;7.17;;;;;;;1.27;57.91;97562.25;6142525;23;20205;-81
2022/01/26 12:17:04;;;;;;;12.17;6.27;;;;;;;1.31;56.16;97558.84;6114401;23;20167;-82
2022/01/26 12:38:45;;;;;;;7.60;4.43;;;;;;;1.54;56.93;97564.78;6160012;23;20167;-89
2022/01/26 12:42:07;;;;;;;8.90;4.67;;;;;;;1.53;57.13;97546.88;6137154;23;20167;-86
2022/01/26 12:45:28;;;;;;;7.60;4.03;;;;;;;1.65;54.58;97560.47;6164852;23;20276;-89
2022/01/26 12:48:48;;;;;;;5.97;4.60;;;;;;;1.59;56.23;97565.59;6171768;23;20210;-93
2022/01/26 12:52:10;;;;;;;9.23;5.10;;;;;;;1.55;56.78;97563.91;6168822;23;20175;-86
2022/01/26 12:55:39;;;;;;;8.63;5.37;;;;;;;1.62;55.88;97567.28;6170329;23;20171;-91
2022/01/26 12:59:06;;;;;;;8.13;5.20;;;;;;;1.60;56.33;97557.09;6096142;23;20186;-86
2022/01/26 13:02:28;;;;;;;10.00;5.10;;;;;;;1.57;58.04;97562.19;6115608;23;20195;-88
2022/01/26 13:05:49;;;;;;;9.37;5.00;;;;;;;1.58;57.99;97573.25;6115716;23;20167;-86
2022/01/26 13:09:09;;;;;;;9.07;5.57;;;;;;;1.26;58.94;97506.97;6140441;23;20175;-84
2022/01/26 13:12:31;;;;;;;9.43;5.23;;;;;;;1.60;58.78;97569.84;6163695;23;20170;-81
2022/01/26 13:16:03;;;;;;;6.17;3.83;;;;;;;1.59;57.36;97583.47;6166011;23;20167;-87
2022/01/26 13:20:23;;;;;;;7.53;4.17;;;;;;;1.62;58.47;97567.28;6166725;23;20167;-81
2022/01/26 13:23:32;;;;;;;9.40;5.33;;;;;;;1.63;58.75;97568.97;6140276;23;20234;-88
2022/01/26 13:27:02;;;;;;;10.13;4.40;;;;;;;1.62;58.65;97574.94;6118083;23;20202;-85
2022/01/26 13:30:46;;;;;;;10.03;5.60;;;;;;;1.60;58.15;97564.75;6160989;23;20174;-81
2022/01/26 13:48:36;;;;;;;8.87;5.70;;;;;;;1.69;56.82;97576.63;6158227;23;20163;-90
2022/01/26 13:59:44;;;;;;;10.20;5.73;;;;;;;1.72;58.15;97576.63;6095334;23;20309;-89
2022/01/26 14:03:04;;;;;;;8.67;5.90;;;;;;;1.72;56.89;97573.22;6151888;23;20191;-82
2022/01/26 14:06:24;;;;;;;14.57;7.47;;;;;;;1.78;58.02;97573.19;6153116;23;20174;-81
2022/01/26 14:09:47;;;;;;;9.30;6.47;;;;;;;1.50;56.84;97532.47;6127728;23;20167;-80
2022/01/26 14:13:08;;;;;;;10.00;6.30;;;;;;;1.77;57.54;97590.25;6127806;23;20214;-84
2022/01/26 14:16:39;;;;;;;11.07;7.13;;;;;;;1.68;58.43;97585.16;6127077;23;20270;-84
2022/01/26 14:23:55;;;;;;;7.10;5.13;;;;;;;1.76;57.79;97582.56;6130313;23;20626;-84
2022/01/26 14:27:12;;;;;;;12.03;7.10;;;;;;;1.67;58.37;97585.97;6157816;23;20171;-81
2022/01/26 14:35:09;;;;;;;9.77;5.93;;;;;;;1.73;58.62;97591.09;6158884;23;20210;-84
2022/01/26 15:40:19;;;;;;;13.87;7.97;;;;;;;1.49;61.48;97598.78;6133833;23;20186;-92
2022/01/26 15:52:46;;;;;;;11.40;6.87;;;;;;;1.47;62.03;97619.22;6164156;23;20203;-95
2022/01/26 17:25:45;;;;;;;13.73;8.73;;;;;;;1.39;64.58;97682.16;6159397;23;20193;-89
2022/01/26 18:46:55;;;;;;;9.30;5.30;;;;;;;1.54;63.67;97717.03;6097331;23;20176;-84
2022/01/26 18:49:48;;;;;;;11.00;6.37;;;;;;;1.54;62.88;97719.59;6084647;23;20236;-89
2022/01/26 18:53:09;;;;;;;9.10;6.67;;;;;;;1.54;63.09;97714.47;6075951;23;20203;-89
2022/01/26 18:56:30;;;;;;;9.83;5.97;;;;;;;1.60;63.56;97722.13;6103424;23;20168;-87
2022/01/26 18:59:51;;;;;;;10.40;6.63;;;;;;;1.59;63.86;97723.81;6078196;23;20534;-85
2022/01/26 19:03:16;;;;;;;12.77;7.67;;;;;;;1.55;64.48;97709.38;6112976;23;20203;-88
2022/01/26 19:06:40;;;;;;;12.07;7.23;;;;;;;1.58;64.14;97718.72;6133580;23;20639;-90
2022/01/26 19:10:04;;;;;;;11.67;7.30;;;;;;;1.59;64.52;97716.16;6130271;23;20901;-84
2022/01/26 19:13:29;;;;;;;14.07;7.57;;;;;;;1.59;64.54;97715.31;6127913;23;20202;-87
2022/01/26 19:17:03;;;;;;;10.83;6.47;;;;;;;1.47;64.86;97720.41;6152070;23;20182;-85